sensor_id;sensor_type;location;lat;lon;timestamp;pressure;altitude;pressure_sealevel;temperature;humidity
44138;BME280;29800;55.942;37.314;2023-03-16T00:02:08;99045.19;;;3.44;68.63
44138;BME280;29800;55.942;37.314;2023-03-16T00:04:36;99025.31;;;3.31;69.75
44138;BME280;29800;55.942;37.314;2023-03-16T00:07:04;99025.97;;;3.27;70.92
44138;BME280;29800;55.942;37.314;2023-03-16T00:09:31;99035.50;;;3.29;70.60
44138;BME280;29800;55.942;37.314;2023-03-16T00:11:58;99021.06;;;3.17;71.74
44138;BME280;29800;55.942;37.314;2023-03-16T00:14:29;99021.75;;;3.06;72.19
44138;BME280;29800;55.942;37.314;2023-03-16T00:16:55;99036.50;;;3.10;73.04
44138;BME280;29800;55.942;37.314;2023-03-16T00:19:22;99025.31;;;3.00;73.65
44138;BME280;29800;55.942;37.314;2023-03-16T00:21:51;99017.00;;;3.01;73.64
44138;BME280;29800;55.942;37.314;2023-03-16T00:24:19;99012.88;;;2.99;73.70
44138;BME280;29800;55.942;37.314;2023-03-16T00:26:48;99021.38;;;3.02;74.19
44138;BME280;29800;55.942;37.314;2023-03-16T00:29:14;99010.78;;;3.01;74.16
44138;BME280;29800;55.942;37.314;2023-03-16T00:31:41;99013.25;;;3.02;74.38
44138;BME280;29800;55.942;37.314;2023-03-16T00:34:11;99011.38;;;3.03;73.86
44138;BME280;29800;55.942;37.314;2023-03-16T00:36:37;99003.63;;;3.06;74.16
44138;BME280;29800;55.942;37.314;2023-03-16T00:39:04;99002.78;;;3.12;74.50
44138;BME280;29800;55.942;37.314;2023-03-16T00:41:31;99010.00;;;3.19;74.09
44138;BME280;29800;55.942;37.314;2023-03-16T00:44:03;99026.41;;;3.24;74.53
44138;BME280;29800;55.942;37.314;2023-03-16T00:46:30;99012.44;;;3.27;74.49
44138;BME280;29800;55.942;37.314;2023-03-16T00:48:56;99011.38;;;3.28;73.81
44138;BME280;29800;55.942;37.314;2023-03-16T00:51:22;99010.56;;;3.27;74.19
44138;BME280;29800;55.942;37.314;2023-03-16T00:53:50;99010.13;;;3.30;73.94
44138;BME280;29800;55.942;37.314;2023-03-16T00:56:16;99016.34;;;3.31;73.65
44138;BME280;29800;55.942;37.314;2023-03-16T00:58:43;99006.16;;;3.33;73.80
44138;BME280;29800;55.942;37.314;2023-03-16T01:01:16;99000.31;;;3.36;73.83
44138;BME280;29800;55.942;37.314;2023-03-16T01:03:46;99012.16;;;3.35;73.97
44138;BME280;29800;55.942;37.314;2023-03-16T01:06:15;99008.66;;;3.35;73.96
44138;BME280;29800;55.942;37.314;2023-03-16T01:08:42;99014.28;;;3.33;74.27
44138;BME280;29800;55.942;37.314;2023-03-16T01:11:12;99019.84;;;3.38;74.13
44138;BME280;29800;55.942;37.314;2023-03-16T01:13:41;99014.81;;;3.42;73.90
44138;BME280;29800;55.942;37.314;2023-03-16T01:16:08;99016.88;;;3.46;73.92
44138;BME280;29800;55.942;37.314;2023-03-16T01:18:35;99005.59;;;3.49;73.58
44138;BME280;29800;55.942;37.314;2023-03-16T01:21:02;99002.91;;;3.49;73.46
44138;BME280;29800;55.942;37.314;2023-03-16T01:23:32;99020.34;;;3.54;73.90
44138;BME280;29800;55.942;37.314;2023-03-16T01:25:59;99009.28;;;3.55;73.78
44138;BME280;29800;55.942;37.314;2023-03-16T01:28:29;99008.63;;;3.60;73.68
44138;BME280;29800;55.942;37.314;2023-03-16T01:31:06;99007.75;;;3.66;73.34
44138;BME280;29800;55.942;37.314;2023-03-16T01:33:35;99014.19;;;3.65;72.93
44138;BME280;29800;55.942;37.314;2023-03-16T01:36:15;99011.88;;;3.68;73.28
44138;BME280;29800;55.942;37.314;2023-03-16T01:38:54;99013.53;;;3.70;72.97
44138;BME280;29800;55.942;37.314;2023-03-16T01:41:22;99020.84;;;3.69;72.86
44138;BME280;29800;55.942;37.314;2023-03-16T01:43:48;99026.25;;;3.69;72.49
44138;BME280;29800;55.942;37.314;2023-03-16T01:46:20;99023.91;;;3.73;72.46
44138;BME280;29800;55.942;37.314;2023-03-16T01:59:52;99012.72;;;3.88;71.68
44138;BME280;29800;55.942;37.314;2023-03-16T02:02:22;99012.44;;;3.77;71.88
44138;BME280;29800;55.942;37.314;2023-03-16T02:04:55;99022.63;;;3.75;72.17
44138;BME280;29800;55.942;37.314;2023-03-16T02:07:25;99014.50;;;3.75;72.28
44138;BME280;29800;55.942;37.314;2023-03-16T02:09:56;99025.34;;;3.75;72.50
44138;BME280;29800;55.942;37.314;2023-03-16T02:12:24;99018.72;;;3.71;72.79
44138;BME280;29800;55.942;37.314;2023-03-16T02:14:54;99020.63;;;3.71;72.41
44138;BME280;29800;55.942;37.314;2023-03-16T02:17:43;99027.88;;;3.70;72.18
44138;BME280;29800;55.942;37.314;2023-03-16T02:23:02;99025.34;;;3.75;71.88
44138;BME280;29800;55.942;37.314;2023-03-16T02:25:42;99021.00;;;3.74;71.91
44138;BME280;29800;55.942;37.314;2023-03-16T02:30:57;99029.13;;;3.74;72.07
44138;BME280;29800;55.942;37.314;2023-03-16T02:33:24;99032.25;;;3.71;72.01
44138;BME280;29800;55.942;37.314;2023-03-16T02:35:51;99034.38;;;3.69;72.13
44138;BME280;29800;55.942;37.314;2023-03-16T02:38:17;99035.69;;;3.60;72.40
44138;BME280;29800;55.942;37.314;2023-03-16T02:41:10;99030.22;;;3.66;72.74
44138;BME280;29800;55.942;37.314;2023-03-16T02:43:45;99029.84;;;3.63;72.56
44138;BME280;29800;55.942;37.314;2023-03-16T02:46:24;99030.22;;;3.66;73.05
44138;BME280;29800;55.942;37.314;2023-03-16T02:48:57;99031.03;;;3.67;72.45
44138;BME280;29800;55.942;37.314;2023-03-16T02:51:29;99030.59;;;3.70;72.19
44138;BME280;29800;55.942;37.314;2023-03-16T02:53:55;99033.47;;;3.75;72.75
44138;BME280;29800;55.942;37.314;2023-03-16T02:56:23;99027.16;;;3.81;72.56
44138;BME280;29800;55.942;37.314;2023-03-16T02:58:49;99031.69;;;3.88;72.55
44138;BME280;29800;55.942;37.314;2023-03-16T03:01:17;99026.28;;;3.88;72.43
44138;BME280;29800;55.942;37.314;2023-03-16T03:03:44;99013.19;;;3.84;72.44
44138;BME280;29800;55.942;37.314;2023-03-16T03:06:10;99010.09;;;3.81;72.29
44138;BME280;29800;55.942;37.314;2023-03-16T03:08:37;99009.50;;;3.79;72.62
44138;BME280;29800;55.942;37.314;2023-03-16T03:11:03;99014.28;;;3.77;72.61
44138;BME280;29800;55.942;37.314;2023-03-16T03:13:29;99023.84;;;3.79;72.71
44138;BME280;29800;55.942;37.314;2023-03-16T03:15:56;99014.50;;;3.75;72.23
44138;BME280;29800;55.942;37.314;2023-03-16T03:18:25;99016.03;;;3.71;72.50
44138;BME280;29800;55.942;37.314;2023-03-16T03:20:52;99013.31;;;3.71;72.56
44138;BME280;29800;55.942;37.314;2023-03-16T03:23:18;98999.78;;;3.71;72.47
44138;BME280;29800;55.942;37.314;2023-03-16T03:25:45;99014.50;;;3.75;73.06
44138;BME280;29800;55.942;37.314;2023-03-16T03:28:14;99006.38;;;3.75;72.78
44138;BME280;29800;55.942;37.314;2023-03-16T03:30:40;99008.06;;;3.76;72.83
44138;BME280;29800;55.942;37.314;2023-03-16T03:33:07;99010.59;;;3.71;72.95
44138;BME280;29800;55.942;37.314;2023-03-16T03:35:34;99005.63;;;3.68;73.00
44138;BME280;29800;55.942;37.314;2023-03-16T03:38:00;99006.44;;;3.68;73.09
44138;BME280;29800;55.942;37.314;2023-03-16T03:40:27;99008.34;;;3.68;73.29
44138;BME280;29800;55.942;37.314;2023-03-16T03:42:59;99005.78;;;3.73;73.12
44138;BME280;29800;55.942;37.314;2023-03-16T03:45:27;98998.03;;;3.77;72.61
44138;BME280;29800;55.942;37.314;2023-03-16T03:47:53;98991.38;;;3.79;72.90
44138;BME280;29800;55.942;37.314;2023-03-16T03:50:23;98979.03;;;3.83;72.36
44138;BME280;29800;55.942;37.314;2023-03-16T03:53:00;98981.06;;;3.88;72.57
44138;BME280;29800;55.942;37.314;2023-03-16T03:55:30;98975.44;;;3.90;72.43
44138;BME280;29800;55.942;37.314;2023-03-16T03:57:56;98980.84;;;3.90;72.74
44138;BME280;29800;55.942;37.314;2023-03-16T04:00:22;98975.56;;;3.95;72.56
44138;BME280;29800;55.942;37.314;2023-03-16T04:02:49;98977.97;;;4.03;72.23
44138;BME280;29800;55.942;37.314;2023-03-16T04:05:32;98978.53;;;4.12;72.21
44138;BME280;29800;55.942;37.314;2023-03-16T04:07:58;98994.91;;;4.17;72.00
44138;BME280;29800;55.942;37.314;2023-03-16T04:10:27;98987.38;;;4.19;71.72
44138;BME280;29800;55.942;37.314;2023-03-16T04:12:55;98988.81;;;4.21;71.74
44138;BME280;29800;55.942;37.314;2023-03-16T04:15:21;98993.41;;;4.21;71.86
44138;BME280;29800;55.942;37.314;2023-03-16T04:18:06;98985.63;;;4.24;71.33
44138;BME280;29800;55.942;37.314;2023-03-16T04:20:33;98990.38;;;4.29;71.77
44138;BME280;29800;55.942;37.314;2023-03-16T04:22:59;98986.41;;;4.32;71.41
44138;BME280;29800;55.942;37.314;2023-03-16T04:25:27;98988.66;;;4.35;71.36
44138;BME280;29800;55.942;37.314;2023-03-16T04:27:56;98991.97;;;4.37;71.20
44138;BME280;29800;55.942;37.314;2023-03-16T04:30:26;98981.13;;;4.37;71.52
44138;BME280;29800;55.942;37.314;2023-03-16T04:32:59;98978.09;;;4.45;70.94
44138;BME280;29800;55.942;37.314;2023-03-16T04:35:25;98978.47;;;4.49;71.08
44138;BME280;29800;55.942;37.314;2023-03-16T04:37:55;98994.28;;;4.52;70.66
44138;BME280;29800;55.942;37.314;2023-03-16T04:40:28;99002.63;;;4.50;70.32
44138;BME280;29800;55.942;37.314;2023-03-16T04:43:03;99001.44;;;4.46;70.67
44138;BME280;29800;55.942;37.314;2023-03-16T04:45:32;99010.25;;;4.41;70.42
44138;BME280;29800;55.942;37.314;2023-03-16T04:47:59;99010.34;;;4.35;70.61
44138;BME280;29800;55.942;37.314;2023-03-16T04:50:25;99015.84;;;4.28;71.07
44138;BME280;29800;55.942;37.314;2023-03-16T04:52:53;99018.00;;;4.19;70.74
44138;BME280;29800;55.942;37.314;2023-03-16T04:55:20;99026.78;;;4.15;71.12
44138;BME280;29800;55.942;37.314;2023-03-16T04:57:49;99028.09;;;4.12;71.85
44138;BME280;29800;55.942;37.314;2023-03-16T05:00:18;99021.94;;;4.05;71.77
44138;BME280;29800;55.942;37.314;2023-03-16T05:02:59;99020.03;;;4.05;71.87
44138;BME280;29800;55.942;37.314;2023-03-16T05:05:25;99031.91;;;4.04;71.66
44138;BME280;29800;55.942;37.314;2023-03-16T05:07:51;99022.75;;;4.05;71.76
44138;BME280;29800;55.942;37.314;2023-03-16T05:10:18;99026.50;;;4.04;72.13
44138;BME280;29800;55.942;37.314;2023-03-16T05:12:46;99027.78;;;4.02;72.25
44138;BME280;29800;55.942;37.314;2023-03-16T05:15:13;99027.38;;;3.98;72.09
44138;BME280;29800;55.942;37.314;2023-03-16T05:17:41;99039.53;;;3.96;72.18
44138;BME280;29800;55.942;37.314;2023-03-16T05:20:10;99036.81;;;3.96;72.59
44138;BME280;29800;55.942;37.314;2023-03-16T05:22:41;99034.78;;;3.91;72.72
44138;BME280;29800;55.942;37.314;2023-03-16T05:25:19;99034.63;;;3.86;72.53
44138;BME280;29800;55.942;37.314;2023-03-16T05:27:51;99040.84;;;3.86;72.80
44138;BME280;29800;55.942;37.314;2023-03-16T05:30:26;99044.84;;;3.84;72.76
44138;BME280;29800;55.942;37.314;2023-03-16T05:32:56;99046.31;;;3.80;73.18
44138;BME280;29800;55.942;37.314;2023-03-16T05:35:23;99056.34;;;3.79;73.10
44138;BME280;29800;55.942;37.314;2023-03-16T05:37:51;99055.75;;;3.77;73.65
44138;BME280;29800;55.942;37.314;2023-03-16T05:40:19;99051.81;;;3.73;73.85
44138;BME280;29800;55.942;37.314;2023-03-16T05:43:00;99048.50;;;3.71;73.98
44138;BME280;29800;55.942;37.314;2023-03-16T05:45:28;99047.22;;;3.74;73.84
44138;BME280;29800;55.942;37.314;2023-03-16T05:48:05;99049.09;;;3.73;74.16
44138;BME280;29800;55.942;37.314;2023-03-16T05:50:35;99054.50;;;3.73;74.10
44138;BME280;29800;55.942;37.314;2023-03-16T05:53:01;99057.00;;;3.75;74.10
44138;BME280;29800;55.942;37.314;2023-03-16T05:55:29;99055.13;;;3.75;74.10
44138;BME280;29800;55.942;37.314;2023-03-16T05:57:59;99056.03;;;3.69;74.29
44138;BME280;29800;55.942;37.314;2023-03-16T06:00:26;99053.53;;;3.67;74.10
44138;BME280;29800;55.942;37.314;2023-03-16T06:03:05;99058.09;;;3.67;74.17
44138;BME280;29800;55.942;37.314;2023-03-16T06:05:35;99051.06;;;3.66;74.77
44138;BME280;29800;55.942;37.314;2023-03-16T06:08:02;99056.84;;;3.70;74.76
44138;BME280;29800;55.942;37.314;2023-03-16T06:10:29;99056.84;;;3.70;75.11
44138;BME280;29800;55.942;37.314;2023-03-16T06:12:56;99052.25;;;3.70;75.07
44138;BME280;29800;55.942;37.314;2023-03-16T06:15:22;99061.59;;;3.74;75.94
44138;BME280;29800;55.942;37.314;2023-03-16T06:17:55;99058.59;;;3.82;75.99
44138;BME280;29800;55.942;37.314;2023-03-16T06:20:22;99052.91;;;3.91;76.06
44138;BME280;29800;55.942;37.314;2023-03-16T06:22:48;99049.31;;;3.97;76.26
44138;BME280;29800;55.942;37.314;2023-03-16T06:25:14;99046.53;;;4.03;76.32
44138;BME280;29800;55.942;37.314;2023-03-16T06:27:42;99051.03;;;4.10;76.15
44138;BME280;29800;55.942;37.314;2023-03-16T06:30:12;99062.41;;;4.18;75.83
44138;BME280;29800;55.942;37.314;2023-03-16T06:32:39;99069.03;;;4.22;75.37
44138;BME280;29800;55.942;37.314;2023-03-16T06:35:11;99074.00;;;4.26;75.76
44138;BME280;29800;55.942;37.314;2023-03-16T06:37:41;99067.53;;;4.27;75.84
44138;BME280;29800;55.942;37.314;2023-03-16T06:40:27;99074.13;;;4.31;75.61
44138;BME280;29800;55.942;37.314;2023-03-16T06:42:54;99079.56;;;4.31;75.93
44138;BME280;29800;55.942;37.314;2023-03-16T06:45:20;99074.91;;;4.38;75.47
44138;BME280;29800;55.942;37.314;2023-03-16T06:47:48;99077.16;;;4.41;75.39
44138;BME280;29800;55.942;37.314;2023-03-16T06:50:14;99079.81;;;4.48;75.31
44138;BME280;29800;55.942;37.314;2023-03-16T06:52:41;99089.13;;;4.52;75.35
44138;BME280;29800;55.942;37.314;2023-03-16T06:55:07;99083.25;;;4.55;75.01
44138;BME280;29800;55.942;37.314;2023-03-16T06:57:37;99084.22;;;4.60;75.18
44138;BME280;29800;55.942;37.314;2023-03-16T07:00:04;99088.72;;;4.67;74.57
44138;BME280;29800;55.942;37.314;2023-03-16T07:02:32;99084.06;;;4.74;74.95
44138;BME280;29800;55.942;37.314;2023-03-16T07:05:01;99095.50;;;4.76;74.34
44138;BME280;29800;55.942;37.314;2023-03-16T07:07:29;99092.13;;;4.81;74.47
44138;BME280;29800;55.942;37.314;2023-03-16T07:09:55;99099.56;;;4.85;74.61
44138;BME280;29800;55.942;37.314;2023-03-16T07:12:21;99097.22;;;4.89;74.60
44138;BME280;29800;55.942;37.314;2023-03-16T07:14:47;99100.09;;;4.94;74.43
44138;BME280;29800;55.942;37.314;2023-03-16T07:17:14;99083.72;;;5.01;74.45
44138;BME280;29800;55.942;37.314;2023-03-16T07:19:40;99083.94;;;4.99;74.16
44138;BME280;29800;55.942;37.314;2023-03-16T07:22:07;99084.44;;;5.08;74.02
44138;BME280;29800;55.942;37.314;2023-03-16T07:24:37;99081.88;;;5.13;73.81
44138;BME280;29800;55.942;37.314;2023-03-16T07:27:03;99076.84;;;5.17;73.30
44138;BME280;29800;55.942;37.314;2023-03-16T07:29:31;99068.69;;;5.17;73.20
44138;BME280;29800;55.942;37.314;2023-03-16T07:31:58;99065.47;;;5.20;73.21
44138;BME280;29800;55.942;37.314;2023-03-16T07:34:32;99073.41;;;5.21;72.91
44138;BME280;29800;55.942;37.314;2023-03-16T07:36:58;99075.06;;;5.22;72.88
44138;BME280;29800;55.942;37.314;2023-03-16T07:39:27;99078.50;;;5.29;72.65
44138;BME280;29800;55.942;37.314;2023-03-16T07:42:02;99083.47;;;5.32;72.87
44138;BME280;29800;55.942;37.314;2023-03-16T07:44:37;99088.28;;;5.61;72.42
44138;BME280;29800;55.942;37.314;2023-03-16T07:47:03;99083.66;;;5.61;71.72
44138;BME280;29800;55.942;37.314;2023-03-16T07:49:30;99081.94;;;5.37;71.93
44138;BME280;29800;55.942;37.314;2023-03-16T07:51:58;99072.88;;;5.43;72.14
44138;BME280;29800;55.942;37.314;2023-03-16T07:54:33;99066.63;;;5.54;72.24
44138;BME280;29800;55.942;37.314;2023-03-16T07:57:00;99066.44;;;5.67;72.16
44138;BME280;29800;55.942;37.314;2023-03-16T07:59:32;99067.97;;;5.75;71.48
44138;BME280;29800;55.942;37.314;2023-03-16T08:01:59;99077.06;;;5.81;70.78
44138;BME280;29800;55.942;37.314;2023-03-16T08:04:26;99075.53;;;5.85;70.56
44138;BME280;29800;55.942;37.314;2023-03-16T08:06:52;99079.91;;;5.86;70.67
44138;BME280;29800;55.942;37.314;2023-03-16T08:09:29;99079.56;;;5.82;69.83
44138;BME280;29800;55.942;37.314;2023-03-16T08:11:56;99083.31;;;5.81;70.43
44138;BME280;29800;55.942;37.314;2023-03-16T08:14:22;99082.50;;;5.93;69.99
44138;BME280;29800;55.942;37.314;2023-03-16T08:17:11;99086.81;;;6.00;70.33
44138;BME280;29800;55.942;37.314;2023-03-16T08:19:37;99088.78;;;6.05;69.62
44138;BME280;29800;55.942;37.314;2023-03-16T08:22:06;99083.72;;;6.09;69.19
44138;BME280;29800;55.942;37.314;2023-03-16T08:24:38;99085.00;;;6.06;68.97
44138;BME280;29800;55.942;37.314;2023-03-16T08:27:07;99080.28;;;6.13;69.22
44138;BME280;29800;55.942;37.314;2023-03-16T08:29:36;99084.28;;;6.22;69.47
44138;BME280;29800;55.942;37.314;2023-03-16T08:32:05;99082.16;;;6.24;69.02
44138;BME280;29800;55.942;37.314;2023-03-16T08:34:38;99072.13;;;6.25;68.57
44138;BME280;29800;55.942;37.314;2023-03-16T08:37:05;99076.25;;;6.28;68.23
44138;BME280;29800;55.942;37.314;2023-03-16T08:39:32;99081.69;;;6.28;68.23
44138;BME280;29800;55.942;37.314;2023-03-16T08:42:04;99081.44;;;6.29;68.10
44138;BME280;29800;55.942;37.314;2023-03-16T08:44:39;99064.09;;;6.30;68.07
44138;BME280;29800;55.942;37.314;2023-03-16T08:47:05;99064.09;;;6.30;67.83
44138;BME280;29800;55.942;37.314;2023-03-16T08:49:33;99075.44;;;6.27;67.69
44138;BME280;29800;55.942;37.314;2023-03-16T08:52:07;99073.66;;;6.21;67.79
44138;BME280;29800;55.942;37.314;2023-03-16T08:54:38;99079.34;;;6.19;68.01
44138;BME280;29800;55.942;37.314;2023-03-16T08:57:04;99089.38;;;6.19;68.28
44138;BME280;29800;55.942;37.314;2023-03-16T08:59:31;99078.41;;;6.14;68.02
44138;BME280;29800;55.942;37.314;2023-03-16T09:01:57;99085.13;;;6.11;67.74
44138;BME280;29800;55.942;37.314;2023-03-16T09:04:23;99086.09;;;6.17;68.28
44138;BME280;29800;55.942;37.314;2023-03-16T09:06:50;99085.63;;;6.20;68.01
44138;BME280;29800;55.942;37.314;2023-03-16T09:09:17;99083.59;;;6.27;67.64
44138;BME280;29800;55.942;37.314;2023-03-16T09:11:43;99074.50;;;6.33;68.21
44138;BME280;29800;55.942;37.314;2023-03-16T09:14:09;99093.41;;;6.28;67.67
44138;BME280;29800;55.942;37.314;2023-03-16T09:16:39;99097.88;;;6.34;67.25
44138;BME280;29800;55.942;37.314;2023-03-16T09:19:05;99096.81;;;6.35;67.44
44138;BME280;29800;55.942;37.314;2023-03-16T09:21:32;99094.09;;;6.35;67.52
44138;BME280;29800;55.942;37.314;2023-03-16T09:24:01;99092.81;;;6.38;67.81
44138;BME280;29800;55.942;37.314;2023-03-16T09:26:27;99089.72;;;6.46;67.56
44138;BME280;29800;55.942;37.314;2023-03-16T09:28:53;99086.97;;;6.58;66.94
44138;BME280;29800;55.942;37.314;2023-03-16T09:31:20;99080.91;;;6.68;66.64
44138;BME280;29800;55.942;37.314;2023-03-16T09:33:47;99071.91;;;6.79;66.18
44138;BME280;29800;55.942;37.314;2023-03-16T09:36:14;99066.19;;;6.92;66.41
44138;BME280;29800;55.942;37.314;2023-03-16T09:38:41;99070.66;;;6.98;66.15
44138;BME280;29800;55.942;37.314;2023-03-16T09:41:19;99074.38;;;7.09;65.28
44138;BME280;29800;55.942;37.314;2023-03-16T09:46:44;99079.84;;;7.26;64.61
44138;BME280;29800;55.942;37.314;2023-03-16T09:49:18;99078.31;;;7.30;64.23
44138;BME280;29800;55.942;37.314;2023-03-16T09:57:31;99102.03;;;7.18;63.69
44138;BME280;29800;55.942;37.314;2023-03-16T10:00:22;99100.31;;;7.29;64.01
44138;BME280;29800;55.942;37.314;2023-03-16T10:03:27;99094.31;;;7.27;63.33
44138;BME280;29800;55.942;37.314;2023-03-16T10:05:59;99094.09;;;7.16;64.11
44138;BME280;29800;55.942;37.314;2023-03-16T10:08:43;99089.50;;;7.17;63.64
44138;BME280;29800;55.942;37.314;2023-03-16T10:14:22;99098.06;;;7.09;64.47
44138;BME280;29800;55.942;37.314;2023-03-16T10:17:00;99101.84;;;7.08;64.99
44138;BME280;29800;55.942;37.314;2023-03-16T10:21:59;99100.06;;;7.02;64.46
44138;BME280;29800;55.942;37.314;2023-03-16T10:24:37;99099.84;;;7.03;63.82
44138;BME280;29800;55.942;37.314;2023-03-16T10:27:16;99101.50;;;7.04;63.76
44138;BME280;29800;55.942;37.314;2023-03-16T10:29:46;99105.75;;;7.00;64.44
44138;BME280;29800;55.942;37.314;2023-03-16T10:32:16;99109.66;;;7.04;64.56
44138;BME280;29800;55.942;37.314;2023-03-16T10:34:51;99109.56;;;6.99;65.17
44138;BME280;29800;55.942;37.314;2023-03-16T10:37:18;99104.38;;;6.97;64.02
44138;BME280;29800;55.942;37.314;2023-03-16T10:39:47;99105.75;;;7.00;64.17
44138;BME280;29800;55.942;37.314;2023-03-16T10:42:17;99109.56;;;6.99;64.03
44138;BME280;29800;55.942;37.314;2023-03-16T10:44:43;99104.69;;;7.01;64.35
44138;BME280;29800;55.942;37.314;2023-03-16T10:47:21;99101.50;;;7.04;63.70
44138;BME280;29800;55.942;37.314;2023-03-16T10:49:49;99102.94;;;6.95;63.46
44138;BME280;29800;55.942;37.314;2023-03-16T10:52:21;99110.72;;;7.03;64.77
44138;BME280;29800;55.942;37.314;2023-03-16T10:54:52;99113.69;;;7.02;63.75
44138;BME280;29800;55.942;37.314;2023-03-16T11:02:39;99103.63;;;7.02;64.40
44138;BME280;29800;55.942;37.314;2023-03-16T11:07:58;99108.47;;;7.12;64.39
44138;BME280;29800;55.942;37.314;2023-03-16T11:10:31;99108.09;;;7.08;64.94
44138;BME280;29800;55.942;37.314;2023-03-16T11:13:09;99111.91;;;7.07;64.68
44138;BME280;29800;55.942;37.314;2023-03-16T11:16:36;99113.06;;;7.11;64.73
44138;BME280;29800;55.942;37.314;2023-03-16T11:18:45;99117.81;;;7.04;65.13
44138;BME280;29800;55.942;37.314;2023-03-16T11:24:09;99116.31;;;6.96;64.37
44138;BME280;29800;55.942;37.314;2023-03-16T11:26:40;99105.09;;;6.93;64.73
44138;BME280;29800;55.942;37.314;2023-03-16T11:29:18;99103.09;;;6.88;64.58
44138;BME280;29800;55.942;37.314;2023-03-16T11:31:54;99104.03;;;6.94;64.86
44138;BME280;29800;55.942;37.314;2023-03-16T11:34:30;99114.53;;;6.90;65.10
44138;BME280;29800;55.942;37.314;2023-03-16T11:39:56;99117.41;;;6.84;65.16
44138;BME280;29800;55.942;37.314;2023-03-16T11:42:37;99121.88;;;6.90;65.24
44138;BME280;29800;55.942;37.314;2023-03-16T11:51:03;99124.38;;;6.91;65.11
44138;BME280;29800;55.942;37.314;2023-03-16T11:54:05;99125.41;;;7.02;65.21
44138;BME280;29800;55.942;37.314;2023-03-16T11:56:45;99133.72;;;6.95;65.66
44138;BME280;29800;55.942;37.314;2023-03-16T12:07:38;99145.41;;;6.96;65.33
44138;BME280;29800;55.942;37.314;2023-03-16T12:13:22;99142.41;;;7.09;65.49
44138;BME280;29800;55.942;37.314;2023-03-16T12:15:59;99148.22;;;7.01;65.71
44138;BME280;29800;55.942;37.314;2023-03-16T12:21:03;99151.91;;;6.95;65.56
44138;BME280;29800;55.942;37.314;2023-03-16T12:26:08;99152.38;;;6.92;66.22
44138;BME280;29800;55.942;37.314;2023-03-16T12:28:37;99154.06;;;6.93;66.05
44138;BME280;29800;55.942;37.314;2023-03-16T12:34:00;99152.16;;;7.05;66.30
44138;BME280;29800;55.942;37.314;2023-03-16T12:45:10;99149.56;;;6.98;66.63
44138;BME280;29800;55.942;37.314;2023-03-16T12:50:13;99159.50;;;6.93;65.94
44138;BME280;29800;55.942;37.314;2023-03-16T12:52:46;99166.59;;;6.94;66.33
44138;BME280;29800;55.942;37.314;2023-03-16T12:55:25;99159.50;;;6.93;65.91
44138;BME280;29800;55.942;37.314;2023-03-16T12:58:01;99169.09;;;6.95;66.99
44138;BME280;29800;55.942;37.314;2023-03-16T13:00:32;99169.69;;;6.86;66.26
44138;BME280;29800;55.942;37.314;2023-03-16T13:03:01;99184.00;;;6.81;66.34
44138;BME280;29800;55.942;37.314;2023-03-16T13:05:34;99187.66;;;6.87;66.77
44138;BME280;29800;55.942;37.314;2023-03-16T13:08:08;99182.69;;;6.84;66.82
44138;BME280;29800;55.942;37.314;2023-03-16T13:10:36;99177.13;;;6.78;67.10
44138;BME280;29800;55.942;37.314;2023-03-16T13:13:13;99188.13;;;6.84;66.85
44138;BME280;29800;55.942;37.314;2023-03-16T13:15:41;99188.97;;;6.84;66.74
44138;BME280;29800;55.942;37.314;2023-03-16T13:20:52;99192.63;;;6.90;67.36
44138;BME280;29800;55.942;37.314;2023-03-16T13:26:17;99192.16;;;6.93;67.08
44138;BME280;29800;55.942;37.314;2023-03-16T13:28:49;99190.38;;;6.87;66.91
44138;BME280;29800;55.942;37.314;2023-03-16T13:31:39;99188.63;;;6.80;66.97
44138;BME280;29800;55.942;37.314;2023-03-16T13:34:12;99186.16;;;6.79;66.91
44138;BME280;29800;55.942;37.314;2023-03-16T13:36:40;99189.59;;;6.74;66.93
44138;BME280;29800;55.942;37.314;2023-03-16T13:39:21;99189.09;;;6.77;66.97
44138;BME280;29800;55.942;37.314;2023-03-16T13:42:02;99181.53;;;6.79;66.79
44138;BME280;29800;55.942;37.314;2023-03-16T13:44:30;99182.25;;;6.75;67.24
44138;BME280;29800;55.942;37.314;2023-03-16T13:47:02;99185.78;;;6.75;67.03
44138;BME280;29800;55.942;37.314;2023-03-16T13:49:30;99179.06;;;6.66;67.00
44138;BME280;29800;55.942;37.314;2023-03-16T13:51:56;99179.19;;;6.59;67.15
44138;BME280;29800;55.942;37.314;2023-03-16T13:54:26;99173.50;;;6.61;67.11
44138;BME280;29800;55.942;37.314;2023-03-16T13:57:01;99166.06;;;6.68;67.28
44138;BME280;29800;55.942;37.314;2023-03-16T13:59:31;99171.16;;;6.53;67.23
44138;BME280;29800;55.942;37.314;2023-03-16T14:01:59;99176.34;;;6.42;67.19
44138;BME280;29800;55.942;37.314;2023-03-16T14:04:29;99178.81;;;6.32;66.76
44138;BME280;29800;55.942;37.314;2023-03-16T14:07:00;99173.28;;;6.27;67.98
44138;BME280;29800;55.942;37.314;2023-03-16T14:09:29;99181.06;;;6.12;67.70
44138;BME280;29800;55.942;37.314;2023-03-16T14:11:58;99180.00;;;6.01;68.16
44138;BME280;29800;55.942;37.314;2023-03-16T14:14:30;99180.94;;;6.06;68.51
44138;BME280;29800;55.942;37.314;2023-03-16T14:17:02;99189.94;;;6.07;68.38
44138;BME280;29800;55.942;37.314;2023-03-16T14:19:57;99183.81;;;6.23;68.21
44138;BME280;29800;55.942;37.314;2023-03-16T14:22:36;99185.91;;;6.21;68.25
44138;BME280;29800;55.942;37.314;2023-03-16T14:25:04;99186.50;;;6.12;68.12
44138;BME280;29800;55.942;37.314;2023-03-16T14:27:42;99195.50;;;6.24;67.89
44138;BME280;29800;55.942;37.314;2023-03-16T14:30:25;99189.59;;;6.27;67.61
44138;BME280;29800;55.942;37.314;2023-03-16T14:33:04;99191.72;;;6.25;67.86
44138;BME280;29800;55.942;37.314;2023-03-16T14:35:38;99201.38;;;6.21;67.73
44138;BME280;29800;55.942;37.314;2023-03-16T14:38:30;99196.66;;;6.16;68.04
44138;BME280;29800;55.942;37.314;2023-03-16T14:41:10;99204.56;;;6.06;68.45
44138;BME280;29800;55.942;37.314;2023-03-16T14:43:45;99197.41;;;5.93;68.49
44138;BME280;29800;55.942;37.314;2023-03-16T14:46:21;99202.00;;;5.81;68.80